^^

..:: Storico WU ::..




Lo storico viene creato da WUnderground con i dati che la stazione Meteomincio invia al loro server. L' aggiornamento viene fatto ogni 5 minuti circa, tuttavia possono esserci intervalli pił ampi a causa di errori, interruzioni di servizio o problemi nell' invio tramite FTP.


Storico stazione MeteoMincio
Giorno Sommario per Settembre 15, 2022 Unità:  Inglese    Metrico   Entrambi
Giorno Settimana Mese Anno
  Max: Min: Media:
Temperatura: 86 °F 64.4 °F 73.4 °F
Dew Point: 71.6 °F 62.6 °F 66.4 °F
Umidità: 93% 59% 80%
Velocità vento: 11.8mph 0mph 3.8mph
Raffica: 17.4mph - -
Direzione- - SW
Pressione: 29.8 in 29.6 in -
Precipitazioni: 0.01 in    
 
 
Tabulato Dati per Settembre 15, 2022
Ora Temperatura Dew Point Pressione Direzione Velocità vento Raffica Umidità Intensità pioggia (oraria) Info solare Situazione
00:04 69.8 °F 66.2 °F 29.8 in Calm   1.2 mph 88% 0 in 0.00 W/m2 unknown
00:09 69.8 °F 66.2 °F 29.8 in NW 1.2 mph 2.5 mph 88% 0 in 0.00 W/m2 unknown
00:14 69.8 °F 66.2 °F 29.8 in NW 1.2 mph 2.5 mph 88% 0 in 0.00 W/m2 unknown
00:19 69.8 °F 66.2 °F 29.8 in Calm   1.9 mph 88% 0 in 0.00 W/m2 unknown
00:24 69.8 °F 66.2 °F 29.8 in NW 1.9 mph 2.5 mph 87% 0 in 0.00 W/m2 unknown
00:29 69.8 °F 66.2 °F 29.8 in NW 1.2 mph 1.9 mph 87% 0 in 0.00 W/m2 unknown
00:34 69.8 °F 66.2 °F 29.8 in Calm   1.2 mph 87% 0 in 0.00 W/m2 unknown
00:39 69.8 °F 66.2 °F 29.8 in WNW 0.6 mph 1.2 mph 87% 0 in 0.00 W/m2 unknown
00:44 69.8 °F 66.2 °F 29.8 in West 1.9 mph 3.7 mph 88% 0 in 0.00 W/m2 unknown
00:49 69.8 °F 66.2 °F 29.8 in WSW 2.5 mph 3.7 mph 88% 0 in 0.00 W/m2 unknown
00:54 69.8 °F 66.2 °F 29.8 in WSW 1.2 mph 3.1 mph 88% 0 in 0.00 W/m2 unknown
00:59 69.8 °F 66.2 °F 29.8 in WNW 1.9 mph 2.5 mph 88% 0 in 0.00 W/m2 unknown
01:04 69.8 °F 66.2 °F 29.8 in WNW 1.9 mph 2.5 mph 87% 0 in 0.00 W/m2 unknown
01:09 69.8 °F 66.2 °F 29.8 in WNW 0.6 mph 1.9 mph 87% 0 in 0.00 W/m2 unknown
01:14 69.8 °F 66.2 °F 29.8 in WNW 0.6 mph 2.5 mph 87% 0 in 0.00 W/m2 unknown
01:19 69.8 °F 66.2 °F 29.8 in West 0.6 mph 1.9 mph 88% 0 in 0.00 W/m2 unknown
01:24 69.8 °F 66.2 °F 29.8 in WSW 1.2 mph 2.5 mph 88% 0 in 0.00 W/m2 unknown
01:29 69.8 °F 66.2 °F 29.8 in SW 0.6 mph 1.9 mph 88% 0 in 0.00 W/m2 unknown
01:34 68 °F 64.4 °F 29.8 in Calm   1.2 mph 88% 0 in 0.00 W/m2 unknown
01:39 68 °F 64.4 °F 29.8 in Calm   1.2 mph 88% 0 in 0.00 W/m2 unknown
01:43 68 °F 64.4 °F 29.8 in Calm     88% 0 in 0.00 W/m2 unknown
01:49 68 °F 64.4 °F 29.8 in Calm     89% 0 in 0.00 W/m2 unknown
01:54 68 °F 64.4 °F 29.8 in Calm   1.9 mph 89% 0 in 0.00 W/m2 unknown
01:59 68 °F 64.4 °F 29.7 in North 1.2 mph 2.5 mph 89% 0 in 0.00 W/m2 unknown
02:04 68 °F 64.4 °F 29.8 in North 1.2 mph 1.9 mph 89% 0 in 0.00 W/m2 unknown
02:09 68 °F 64.4 °F 29.8 in Calm   1.2 mph 89% 0 in 0.00 W/m2 unknown
02:14 68 °F 64.4 °F 29.8 in Calm     89% 0 in 0.00 W/m2 unknown
02:16 68 °F 64.4 °F 29.7 in Calm     89% 0 in 0.00 W/m2 unknown
02:24 68 °F 64.4 °F 29.8 in Calm     89% 0 in 0.00 W/m2 unknown
02:29 68 °F 64.4 °F 29.8 in Calm     89% 0 in 0.00 W/m2 unknown
02:34 68 °F 64.4 °F 29.8 in Calm     89% 0 in 0.00 W/m2 unknown
02:39 68 °F 64.4 °F 29.7 in Calm     89% 0 in 0.00 W/m2 unknown
02:44 68 °F 64.4 °F 29.7 in Calm     89% 0 in 0.00 W/m2 unknown
02:49 68 °F 64.4 °F 29.7 in Calm     89% 0 in 0.00 W/m2 unknown
02:54 68 °F 64.4 °F 29.7 in Calm     89% 0 in 0.00 W/m2 unknown
02:59 68 °F 64.4 °F 29.7 in Calm     89% 0 in 0.00 W/m2 unknown
03:04 68 °F 64.4 °F 29.7 in Calm     89% 0 in 0.00 W/m2 unknown
03:09 68 °F 64.4 °F 29.7 in NNE 2.5 mph 3.7 mph 90% 0 in 0.00 W/m2 unknown
03:14 66.2 °F 64.4 °F 29.7 in NNE 1.9 mph 3.7 mph 90% 0 in 0.00 W/m2 unknown
03:19 66.2 °F 64.4 °F 29.7 in Calm   3.1 mph 90% 0 in 0.00 W/m2 unknown
03:24 66.2 °F 64.4 °F 29.7 in Calm   1.2 mph 90% 0 in 0.00 W/m2 unknown
03:29 66.2 °F 64.4 °F 29.7 in Calm     91% 0 in 0.00 W/m2 unknown
03:34 66.2 °F 64.4 °F 29.8 in North 0.6 mph 1.2 mph 91% 0 in 0.00 W/m2 unknown
03:39 66.2 °F 64.4 °F 29.8 in North 0.6 mph 1.2 mph 91% 0 in 0.00 W/m2 unknown
03:44 66.2 °F 64.4 °F 29.8 in West 2.5 mph 3.7 mph 91% 0 in 0.00 W/m2 unknown
03:49 66.2 °F 64.4 °F 29.8 in NW 3.1 mph 3.7 mph 91% 0 in 0.00 W/m2 unknown
03:54 66.2 °F 64.4 °F 29.7 in NW 3.1 mph 3.7 mph 91% 0 in 0.00 W/m2 unknown
03:59 66.2 °F 64.4 °F 29.7 in North 2.5 mph 3.7 mph 91% 0 in 0.00 W/m2 unknown
04:04 66.2 °F 64.4 °F 29.7 in West 3.7 mph 3.7 mph 92% 0 in 0.00 W/m2 unknown
04:09 66.2 °F 64.4 °F 29.7 in SSW 3.1 mph 3.7 mph 91% 0 in 0.00 W/m2 unknown
04:14 66.2 °F 64.4 °F 29.7 in SE 2.5 mph 3.7 mph 92% 0 in 0.00 W/m2 unknown
04:19 66.2 °F 64.4 °F 29.7 in ENE 3.1 mph 3.7 mph 92% 0 in 0.00 W/m2 unknown
04:24 66.2 °F 64.4 °F 29.7 in NE 2.5 mph 3.7 mph 93% 0 in 0.00 W/m2 unknown
04:29 66.2 °F 64.4 °F 29.7 in NE 1.2 mph 2.5 mph 93% 0 in 0.00 W/m2 unknown
04:34 66.2 °F 64.4 °F 29.7 in East 2.5 mph 3.7 mph 93% 0 in 0.00 W/m2 unknown
04:39 66.2 °F 64.4 °F 29.7 in South 3.7 mph 5 mph 93% 0 in 0.00 W/m2 unknown
04:44 66.2 °F 64.4 °F 29.7 in ESE 1.9 mph 5 mph 93% 0 in 0.00 W/m2 unknown
04:49 66.2 °F 64.4 °F 29.7 in SSE 1.9 mph 3.1 mph 93% 0 in 0.00 W/m2 unknown
04:54 66.2 °F 64.4 °F 29.7 in South 1.2 mph 1.9 mph 93% 0 in 0.00 W/m2 unknown
04:59 66.2 °F 64.4 °F 29.7 in South 0.6 mph 1.2 mph 93% 0 in 0.00 W/m2 unknown
05:04 66.2 °F 64.4 °F 29.7 in Calm   1.2 mph 93% 0 in 0.00 W/m2 unknown
05:09 66.2 °F 64.4 °F 29.7 in South 1.2 mph 2.5 mph 93% 0 in 0.00 W/m2 unknown
05:14 66.2 °F 64.4 °F 29.7 in Calm   1.9 mph 93% 0 in 0.00 W/m2 unknown
05:19 66.2 °F 64.4 °F 29.7 in WNW 1.9 mph 3.1 mph 93% 0 in 0.00 W/m2 unknown
05:24 66.2 °F 64.4 °F 29.7 in NW 1.9 mph 3.7 mph 93% 0 in 0.00 W/m2 unknown
05:29 66.2 °F 64.4 °F 29.7 in Calm   3.1 mph 93% 0 in 0.00 W/m2 unknown
05:34 66.2 °F 64.4 °F 29.7 in Calm     93% 0 in 0.00 W/m2 unknown
05:39 66.2 °F 64.4 °F 29.7 in Calm     93% 0 in 0.00 W/m2 unknown
05:44 66.2 °F 64.4 °F 29.7 in Calm     93% 0 in 0.00 W/m2 unknown
05:49 66.2 °F 62.6 °F 29.7 in Calm     93% 0 in 0.00 W/m2 unknown
05:54 64.4 °F 62.6 °F 29.7 in West 1.9 mph 3.1 mph 93% 0 in 0.00 W/m2 unknown
05:59 64.4 °F 62.6 °F 29.7 in West 1.9 mph 3.7 mph 93% 0 in 0.00 W/m2 unknown
06:04 64.4 °F 62.6 °F 29.7 in Calm   3.1 mph 93% 0 in 0.00 W/m2 unknown
06:09 64.4 °F 62.6 °F 29.7 in South 1.9 mph 3.7 mph 93% 0 in 0.00 W/m2 unknown
06:14 64.4 °F 62.6 °F 29.7 in SSW 1.9 mph 3.7 mph 93% 0 in 0.00 W/m2 unknown
06:19 64.4 °F 62.6 °F 29.7 in WSW 2.5 mph 3.7 mph 93% 0 in 0.00 W/m2 unknown
06:24 64.4 °F 62.6 °F 29.7 in West 1.9 mph 3.1 mph 93% 0 in 0.00 W/m2 unknown
06:29 64.4 °F 62.6 °F 29.7 in WSW 3.1 mph 3.7 mph 93% 0 in 0.00 W/m2 unknown
06:34 64.4 °F 62.6 °F 29.7 in West 3.1 mph 3.7 mph 93% 0 in 0.00 W/m2 unknown
06:39 64.4 °F 62.6 °F 29.7 in WNW 2.5 mph 3.7 mph 93% 0 in 0.00 W/m2 unknown
06:44 64.4 °F 62.6 °F 29.7 in WNW 2.5 mph 3.7 mph 93% 0 in 0.00 W/m2 unknown
06:49 64.4 °F 62.6 °F 29.7 in NNW 2.5 mph 3.7 mph 93% 0 in 0.00 W/m2 unknown
06:54 64.4 °F 62.6 °F 29.7 in NW 1.9 mph 3.7 mph 93% 0 in 0.00 W/m2 unknown
06:59 64.4 °F 62.6 °F 29.7 in North 1.9 mph 3.7 mph 93% 0 in 0.00 W/m2 unknown
07:04 64.4 °F 62.6 °F 29.7 in North 1.9 mph 3.1 mph 93% 0 in 0.00 W/m2 unknown
07:09 64.4 °F 62.6 °F 29.7 in NNE 1.9 mph 3.1 mph 93% 0 in 9.00 W/m2 unknown
07:14 64.4 °F 62.6 °F 29.7 in NE 1.9 mph 3.7 mph 93% 0 in 11.00 W/m2 unknown
07:19 64.4 °F 62.6 °F 29.7 in Calm   1.9 mph 93% 0 in 14.00 W/m2 unknown
07:24 64.4 °F 62.6 °F 29.7 in Calm   1.2 mph 93% 0 in 16.00 W/m2 unknown
07:29 64.4 °F 62.6 °F 29.7 in North 1.9 mph 3.7 mph 93% 0 in 16.00 W/m2 unknown
07:34 66.2 °F 64.4 °F 29.7 in NNW 1.9 mph 2.5 mph 93% 0 in 25.00 W/m2 unknown
07:39 66.2 °F 64.4 °F 29.7 in NNW 1.2 mph 3.7 mph 93% 0 in 33.00 W/m2 unknown
07:44 66.2 °F 64.4 °F 29.7 in North 1.2 mph 3.1 mph 93% 0 in 33.00 W/m2 unknown
07:49 66.2 °F 64.4 °F 29.7 in NNE 1.2 mph 2.5 mph 93% 0 in 44.00 W/m2 unknown
07:54 66.2 °F 64.4 °F 29.7 in NNE 1.2 mph 1.9 mph 93% 0 in 51.00 W/m2 unknown
07:59 66.2 °F 64.4 °F 29.7 in Calm   1.2 mph 93% 0 in 51.00 W/m2 unknown
08:04 66.2 °F 64.4 °F 29.7 in Calm   1.2 mph 93% 0 in 63.00 W/m2 unknown
08:09 66.2 °F 64.4 °F 29.7 in Calm     93% 0 in 58.00 W/m2 unknown
08:14 66.2 °F 64.4 °F 29.7 in Calm     93% 0 in 37.00 W/m2 unknown
08:19 66.2 °F 64.4 °F 29.7 in Calm     93% 0 in 37.00 W/m2 unknown
08:24 66.2 °F 64.4 °F 29.7 in Calm     93% 0 in 35.00 W/m2 unknown
08:29 66.2 °F 64.4 °F 29.7 in Calm     92% 0 in 37.00 W/m2 unknown
08:34 66.2 °F 64.4 °F 29.7 in Calm     92% 0 in 46.00 W/m2 unknown
08:39 66.2 °F 64.4 °F 29.7 in Calm     92% 0 in 54.00 W/m2 unknown
08:44 66.2 °F 64.4 °F 29.7 in Calm     92% 0 in 54.00 W/m2 unknown
08:49 66.2 °F 64.4 °F 29.7 in Calm     92% 0 in 62.00 W/m2 unknown
08:54 66.2 °F 64.4 °F 29.7 in NNE 1.9 mph 2.5 mph 92% 0 in 93.00 W/m2 unknown
08:59 68 °F 64.4 °F 29.7 in NNE 1.2 mph 2.5 mph 93% 0 in 104.00 W/m2 unknown
09:04 68 °F 64.4 °F 29.7 in East 0.6 mph 1.9 mph 92% 0 in 179.00 W/m2 unknown
09:09 68 °F 64.4 °F 29.7 in East 1.2 mph 2.5 mph 92% 0 in 188.00 W/m2 unknown
09:14 68 °F 66.2 °F 29.7 in East 1.2 mph 2.5 mph 92% 0 in 200.00 W/m2 unknown
09:19 68 °F 66.2 °F 29.7 in ENE 1.2 mph 1.9 mph 92% 0 in 214.00 W/m2 unknown
09:24 69.8 °F 66.2 °F 29.7 in NNE 0.6 mph 2.5 mph 92% 0 in 316.00 W/m2 unknown
09:29 69.8 °F 66.2 °F 29.7 in NNW 0.6 mph 1.9 mph 90% 0 in 316.00 W/m2 unknown
09:34 69.8 °F 66.2 °F 29.7 in Calm   1.2 mph 88% 0 in 236.00 W/m2 unknown
09:39 69.8 °F 66.2 °F 29.7 in Calm   1.2 mph 88% 0 in 353.00 W/m2 unknown
09:44 71.6 °F 66.2 °F 29.7 in Calm     88% 0 in 292.00 W/m2 unknown
09:49 71.6 °F 68 °F 29.7 in WNW 1.2 mph 3.1 mph 87% 0 in 316.00 W/m2 unknown
09:54 71.6 °F 68 °F 29.7 in WNW 3.1 mph 5 mph 86% 0 in 378.00 W/m2 unknown
09:59 71.6 °F 68 °F 29.7 in NW 3.1 mph 5 mph 85% 0 in 350.00 W/m2 unknown
10:04 73.4 °F 68 °F 29.7 in NW 3.7 mph 5 mph 85% 0 in 392.00 W/m2 unknown
10:09 73.4 °F 69.8 °F 29.7 in North 3.1 mph 5 mph 86% 0 in 392.00 W/m2 unknown
10:14 73.4 °F 68 °F 29.7 in NNW 1.2 mph 5 mph 85% 0 in 387.00 W/m2 unknown
10:19 75.2 °F 69.8 °F 29.7 in NNW 2.5 mph 3.7 mph 85% 0 in 415.00 W/m2 unknown
10:24 75.2 °F 69.8 °F 29.7 in NW 3.1 mph 3.7 mph 84% 0 in 401.00 W/m2 unknown
10:29 75.2 °F 69.8 °F 29.7 in NW 1.9 mph 3.7 mph 82% 0 in 480.00 W/m2 unknown
10:34 75.2 °F 69.8 °F 29.7 in NNW 2.5 mph 3.7 mph 83% 0 in 485.00 W/m2 unknown
10:39 75.2 °F 69.8 °F 29.7 in NW 1.9 mph 3.7 mph 83% 0 in 504.00 W/m2 unknown
10:44 77 °F 69.8 °F 29.7 in NW 2.5 mph 3.7 mph 80% 0 in 515.00 W/m2 unknown
10:49 77 °F 69.8 °F 29.7 in North 3.7 mph 3.7 mph 80% 0 in 524.00 W/m2 unknown
10:54 78.8 °F 71.6 °F 29.7 in NNW 3.1 mph 3.7 mph 78% 0 in 529.00 W/m2 unknown
10:59 78.8 °F 69.8 °F 29.7 in NNW 3.7 mph 6.2 mph 76% 0 in 541.00 W/m2 unknown
11:04 78.8 °F 71.6 °F 29.7 in NNW 3.7 mph 6.2 mph 76% 0 in 554.00 W/m2 unknown
11:09 78.8 °F 71.6 °F 29.7 in NNW 3.1 mph 6.2 mph 76% 0 in 564.00 W/m2 unknown
11:14 78.8 °F 69.8 °F 29.7 in NNE 4.3 mph 6.2 mph 74% 0 in 573.00 W/m2 unknown
11:19 80.6 °F 71.6 °F 29.7 in NNW 3.7 mph 6.2 mph 74% 0 in 582.00 W/m2 unknown
11:24 80.6 °F 71.6 °F 29.7 in WNW 3.1 mph 6.2 mph 74% 0 in 589.00 W/m2 unknown
11:29 80.6 °F 71.6 °F 29.7 in NNW 3.1 mph 3.7 mph 73% 0 in 599.00 W/m2 unknown
11:34 80.6 °F 71.6 °F 29.7 in NNW 2.5 mph 6.2 mph 72% 0 in 601.00 W/m2 unknown
11:39 82.4 °F 71.6 °F 29.7 in NW 4.3 mph 6.8 mph 72% 0 in 612.00 W/m2 unknown
11:44 82.4 °F 69.8 °F 29.7 in WNW 5 mph 6.8 mph 68% 0 in 622.00 W/m2 unknown
11:49 82.4 °F 69.8 °F 29.7 in WNW 5 mph 6.8 mph 68% 0 in 626.00 W/m2 unknown
11:54 82.4 °F 71.6 °F 29.7 in WNW 2.5 mph 6.8 mph 68% 0 in 636.00 W/m2 unknown
11:59 82.4 °F 71.6 °F 29.7 in West 6.8 mph 8.1 mph 68% 0 in 643.00 W/m2 unknown
12:04 82.4 °F 69.8 °F 29.7 in WNW 6.2 mph 8.1 mph 65% 0 in 652.00 W/m2 unknown
12:09 82.4 °F 69.8 °F 29.7 in West 8.1 mph 11.8 mph 64% 0 in 663.00 W/m2 unknown
12:14 84.2 °F 69.8 °F 29.7 in WSW 6.2 mph 11.8 mph 65% 0 in 664.00 W/m2 unknown
12:19 84.2 °F 69.8 °F 29.7 in West 6.8 mph 9.3 mph 63% 0 in 659.00 W/m2 unknown
12:24 84.2 °F 69.8 °F 29.7 in West 8.1 mph 11.8 mph 63% 0 in 666.00 W/m2 unknown
12:29 84.2 °F 69.8 °F 29.7 in WSW 8.7 mph 11.8 mph 63% 0 in 682.00 W/m2 unknown
12:34 84.2 °F 69.8 °F 29.7 in West 8.7 mph 11.8 mph 62% 0 in 677.00 W/m2 unknown
12:39 84.2 °F 69.8 °F 29.7 in WSW 6.2 mph 11.8 mph 62% 0 in 689.00 W/m2 unknown
12:44 84.2 °F 69.8 °F 29.7 in West 6.8 mph 9.9 mph 61% 0 in 689.00 W/m2 unknown
12:49 84.2 °F 69.8 °F 29.7 in WSW 6.2 mph 8.7 mph 61% 0 in 686.00 W/m2 unknown
12:54 84.2 °F 69.8 °F 29.7 in SW 5.6 mph 8.1 mph 60% 0 in 696.00 W/m2 unknown
12:59 84.2 °F 69.8 °F 29.7 in WSW 8.1 mph 11.8 mph 63% 0 in 708.00 W/m2 unknown
13:04 84.2 °F 69.8 °F 29.7 in WSW 8.7 mph 11.8 mph 62% 0 in 708.00 W/m2 unknown
13:09 86 °F 69.8 °F 29.7 in WSW 5.6 mph 9.9 mph 60% 0 in 708.00 W/m2 unknown
13:14 86 °F 69.8 °F 29.7 in WNW 7.5 mph 9.3 mph 59% 0 in 722.00 W/m2 unknown
13:19 86 °F 69.8 °F 29.7 in WNW 6.2 mph 9.3 mph 59% 0 in 756.00 W/m2 unknown
13:24 86 °F 69.8 °F 29.7 in West 5 mph 6.8 mph 60% 0 in 756.00 W/m2 unknown
13:29 86 °F 69.8 °F 29.7 in SW 5.6 mph 8.1 mph 60% 0 in 763.00 W/m2 unknown
13:34 86 °F 69.8 °F 29.7 in SW 9.9 mph 11.8 mph 59% 0 in 656.00 W/m2 unknown
13:39 86 °F 68 °F 29.7 in WSW 8.1 mph 11.8 mph 59% 0 in 394.00 W/m2 unknown
13:44 84.2 °F 68 °F 29.7 in West 8.1 mph 11.8 mph 60% 0 in 192.00 W/m2 unknown
13:49 84.2 °F 68 °F 29.7 in West 7.5 mph 11.8 mph 61% 0 in 192.00 W/m2 unknown
13:54 84.2 °F 68 °F 29.7 in WSW 6.8 mph 11.8 mph 61% 0 in 158.00 W/m2 unknown
13:59 84.2 °F 68 °F 29.7 in WSW 8.7 mph 13 mph 61% 0 in 142.00 W/m2 unknown
14:04 84.2 °F 69.8 °F 29.7 in WSW 8.7 mph 13 mph 62% 0 in 543.00 W/m2 unknown
14:09 86 °F 69.8 °F 29.7 in WSW 8.7 mph 11.8 mph 61% 0 in 747.00 W/m2 unknown
14:14 86 °F 69.8 °F 29.7 in WSW 8.1 mph 11.8 mph 59% 0 in 738.00 W/m2 unknown
14:19 86 °F 69.8 °F 29.7 in SW 7.5 mph 11.8 mph 59% 0 in 719.00 W/m2 unknown
14:24 86 °F 69.8 °F 29.7 in SW 6.2 mph 11.8 mph 59% 0 in 724.00 W/m2 unknown
14:29 86 °F 69.8 °F 29.7 in South 8.7 mph 14.9 mph 60% 0 in 752.00 W/m2 unknown
14:34 86 °F 69.8 °F 29.7 in South 9.9 mph 14.9 mph 60% 0 in 752.00 W/m2 unknown
14:39 84.2 °F 69.8 °F 29.7 in SSW 9.9 mph 14.9 mph 61% 0 in 116.00 W/m2 unknown
14:44 84.2 °F 68 °F 29.7 in SSW 10.6 mph 14.9 mph 62% 0 in 109.00 W/m2 unknown
14:49 82.4 °F 69.8 °F 29.7 in South 11.2 mph 17.4 mph 63% 0 in 109.00 W/m2 unknown
14:54 82.4 °F 69.8 °F 29.7 in South 7.5 mph 16.8 mph 63% 0 in 626.00 W/m2 unknown
14:59 82.4 °F 69.8 °F 29.7 in South 9.9 mph 14.3 mph 63% 0 in 628.00 W/m2 unknown
15:04 84.2 °F 69.8 °F 29.7 in South 9.9 mph 14.9 mph 63% 0 in 339.00 W/m2 unknown
15:09 84.2 °F 69.8 °F 29.7 in South 8.7 mph 14.9 mph 62% 0 in 441.00 W/m2 unknown
15:14 84.2 °F 69.8 °F 29.7 in South 8.1 mph 11.8 mph 63% 0 in 403.00 W/m2 unknown
15:19 84.2 °F 69.8 °F 29.7 in South 9.9 mph 13 mph 64% 0 in 178.00 W/m2 unknown
15:24 82.4 °F 69.8 °F 29.7 in South 9.3 mph 13 mph 65% 0 in 146.00 W/m2 unknown
15:29 82.4 °F 68 °F 29.7 in SSW 9.9 mph 13 mph 65% 0 in 176.00 W/m2 unknown
15:34 82.4 °F 68 °F 29.7 in SSW 11.8 mph 14.9 mph 66% 0 in 204.00 W/m2 unknown
15:39 80.6 °F 68 °F 29.7 in SSW 9.3 mph 13 mph 66% 0 in 244.00 W/m2 unknown
15:44 80.6 °F 68 °F 29.7 in SSW 9.3 mph 14.3 mph 67% 0 in 178.00 W/m2 unknown
15:49 80.6 °F 69.8 °F 29.7 in SSW 11.2 mph 14.9 mph 68% 0 in 144.00 W/m2 unknown
15:54 80.6 °F 69.8 °F 29.7 in SSW 10.6 mph 16.2 mph 70% 0 in 183.00 W/m2 unknown
15:59 80.6 °F 69.8 °F 29.7 in SSW 8.7 mph 16.2 mph 73% 0 in 183.00 W/m2 unknown
16:04 78.8 °F 69.8 °F 29.7 in SSW 9.9 mph 14.9 mph 74% 0 in 172.00 W/m2 unknown
16:09 78.8 °F 69.8 °F 29.7 in SSW 8.1 mph 14.9 mph 75% 0 in 218.00 W/m2 unknown
16:14 77 °F 69.8 °F 29.7 in SSW 7.5 mph 11.8 mph 76% 0.01 in 200.00 W/m2 unknown
16:19 77 °F 69.8 °F 29.7 in SSW 8.1 mph 11.2 mph 76% 0.01 in 221.00 W/m2 unknown
16:24 77 °F 69.8 °F 29.7 in SSW 9.9 mph 14.9 mph 76% 0.01 in 207.00 W/m2 unknown
16:29 77 °F 68 °F 29.7 in SSW 11.8 mph 16.2 mph 75% 0.01 in 148.00 W/m2 unknown
16:34 77 °F 68 °F 29.7 in SSW 9.9 mph 16.2 mph 73% 0.01 in 118.00 W/m2 unknown
16:39 77 °F 68 °F 29.7 in SSW 8.1 mph 14.3 mph 74% 0.01 in 120.00 W/m2 unknown
16:44 77 °F 68 °F 29.7 in SSW 8.1 mph 10.6 mph 74% 0.01 in 218.00 W/m2 unknown
16:49 77 °F 68 °F 29.7 in SSW 6.8 mph 9.9 mph 74% 0.01 in 132.00 W/m2 unknown
16:54 77 °F 68 °F 29.7 in SSW 8.1 mph 11.8 mph 74% 0.01 in 132.00 W/m2 unknown
16:59 77 °F 68 °F 29.6 in SSW 6.2 mph 11.8 mph 74% 0.01 in 116.00 W/m2 unknown
17:03 77 °F 68 °F 29.6 in SSW 7.5 mph 9.3 mph 74% 0.01 in 118.00 W/m2 unknown
17:09 77 °F 68 °F 29.6 in SW 6.8 mph 9.9 mph 74% 0.01 in 116.00 W/m2 unknown
17:14 77 °F 68 °F 29.6 in SW 8.1 mph 11.8 mph 74% 0 in 109.00 W/m2 unknown
17:19 77 °F 68 °F 29.6 in SSW 8.1 mph 11.8 mph 73% 0 in 81.00 W/m2 unknown
17:24 77 °F 68 °F 29.6 in SW 9.9 mph 13 mph 72% 0 in 70.00 W/m2 unknown
17:29 77 °F 68 °F 29.6 in SW 8.7 mph 13 mph 72% 0 in 70.00 W/m2 unknown
17:34 77 °F 68 °F 29.6 in SW 7.5 mph 13 mph 72% 0 in 93.00 W/m2 unknown
17:39 77 °F 68 °F 29.6 in SW 6.8 mph 10.6 mph 71% 0 in 174.00 W/m2 unknown
17:44 77 °F 66.2 °F 29.6 in SW 8.7 mph 14.3 mph 70% 0 in 105.00 W/m2 unknown
17:49 78.8 °F 68 °F 29.6 in SW 8.7 mph 14.3 mph 70% 0 in 316.00 W/m2 unknown
17:54 78.8 °F 68 °F 29.6 in SW 8.7 mph 11.8 mph 69% 0 in 313.00 W/m2 unknown
17:59 78.8 °F 68 °F 29.6 in WSW 9.3 mph 13 mph 69% 0 in 287.00 W/m2 unknown
18:04 78.8 °F 68 °F 29.6 in SW 9.3 mph 13 mph 68% 0 in 262.00 W/m2 unknown
18:09 78.8 °F 68 °F 29.6 in SW 9.3 mph 13 mph 68% 0 in 234.00 W/m2 unknown
18:14 78.8 °F 68 °F 29.6 in SW 8.7 mph 11.8 mph 67% 0 in 211.00 W/m2 unknown
18:19 78.8 °F 68 °F 29.6 in SW 8.7 mph 13 mph 68% 0 in 144.00 W/m2 unknown
18:24 78.8 °F 68 °F 29.6 in SSW 8.1 mph 13 mph 67% 0 in 53.00 W/m2 unknown
18:29 78.8 °F 68 °F 29.6 in SW 8.7 mph 13 mph 67% 0 in 109.00 W/m2 unknown
18:34 78.8 °F 68 °F 29.6 in SW 9.3 mph 14.3 mph 67% 0 in 109.00 W/m2 unknown
18:39 78.8 °F 66.2 °F 29.6 in SW 8.7 mph 14.3 mph 66% 0 in 100.00 W/m2 unknown
18:44 78.8 °F 66.2 °F 29.6 in SW 8.1 mph 11.8 mph 66% 0 in 83.00 W/m2 unknown
18:49 78.8 °F 66.2 °F 29.6 in SW 7.5 mph 11.8 mph 66% 0 in 67.00 W/m2 unknown
18:54 78.8 °F 66.2 °F 29.6 in SW 8.1 mph 11.8 mph 66% 0 in 56.00 W/m2 unknown
18:59 78.8 °F 66.2 °F 29.6 in SW 6.2 mph 11.8 mph 67% 0 in 46.00 W/m2 unknown
19:04 78.8 °F 66.2 °F 29.6 in SW 5.6 mph 8.7 mph 67% 0 in 28.00 W/m2 unknown
19:09 78.8 °F 66.2 °F 29.6 in SW 5 mph 8.7 mph 68% 0 in 18.00 W/m2 unknown
19:14 78.8 °F 66.2 °F 29.6 in SW 6.2 mph 9.3 mph 68% 0 in 14.00 W/m2 unknown
19:19 77 °F 66.2 °F 29.6 in SW 5 mph 8.7 mph 69% 0 in 11.00 W/m2 unknown
19:24 77 °F 66.2 °F 29.6 in SW 5 mph 6.8 mph 69% 0 in 7.00 W/m2 unknown
19:29 77 °F 66.2 °F 29.6 in SW 5 mph 6.8 mph 70% 0 in 5.00 W/m2 unknown
19:34 77 °F 66.2 °F 29.6 in SW 3.1 mph 6.8 mph 70% 0 in 0.00 W/m2 unknown
19:39 77 °F 66.2 °F 29.6 in SW 4.3 mph 6.2 mph 70% 0 in 0.00 W/m2 unknown
19:44 77 °F 66.2 °F 29.6 in SW 4.3 mph 6.2 mph 71% 0 in 0.00 W/m2 unknown
19:49 75.2 °F 66.2 °F 29.6 in SW 4.3 mph 8.1 mph 71% 0 in 0.00 W/m2 unknown
19:54 75.2 °F 66.2 °F 29.6 in SW 5 mph 8.1 mph 71% 0 in 0.00 W/m2 unknown
19:59 75.2 °F 66.2 °F 29.6 in SW 5.6 mph 8.1 mph 71% 0 in 0.00 W/m2 unknown
20:04 75.2 °F 66.2 °F 29.6 in SW 5.6 mph 6.8 mph 71% 0 in 0.00 W/m2 unknown
20:09 75.2 °F 66.2 °F 29.6 in SW 5.6 mph 8.1 mph 71% 0 in 0.00 W/m2 unknown
20:14 75.2 °F 66.2 °F 29.6 in SW 5 mph 8.1 mph 71% 0 in 0.00 W/m2 unknown
20:19 75.2 °F 66.2 °F 29.6 in SW 5 mph 6.2 mph 72% 0 in 0.00 W/m2 unknown
20:24 75.2 °F 64.4 °F 29.6 in SW 3.7 mph 6.2 mph 72% 0 in 0.00 W/m2 unknown
20:29 75.2 °F 64.4 °F 29.6 in SW 5 mph 6.2 mph 72% 0 in 0.00 W/m2 unknown
20:34 75.2 °F 64.4 °F 29.6 in WSW 3.7 mph 6.2 mph 72% 0 in 0.00 W/m2 unknown
20:39 75.2 °F 64.4 °F 29.6 in WSW 4.3 mph 6.2 mph 72% 0 in 0.00 W/m2 unknown
20:44 75.2 °F 64.4 °F 29.6 in WSW 3.1 mph 6.2 mph 73% 0 in 0.00 W/m2 unknown
20:49 73.4 °F 64.4 °F 29.6 in SW 3.1 mph 5 mph 73% 0 in 0.00 W/m2 unknown
20:54 73.4 °F 64.4 °F 29.6 in SW 3.1 mph 5 mph 74% 0 in 0.00 W/m2 unknown
20:59 73.4 °F 64.4 °F 29.6 in WSW 2.5 mph 5 mph 73% 0 in 0.00 W/m2 unknown
21:04 73.4 °F 64.4 °F 29.6 in WSW 3.1 mph 3.7 mph 74% 0 in 0.00 W/m2 unknown
21:09 73.4 °F 64.4 °F 29.6 in WSW 2.5 mph 3.7 mph 75% 0 in 0.00 W/m2 unknown
21:14 73.4 °F 64.4 °F 29.6 in WSW 2.5 mph 3.7 mph 75% 0 in 0.00 W/m2 unknown
21:19 73.4 °F 64.4 °F 29.6 in WSW 1.9 mph 3.7 mph 76% 0 in 0.00 W/m2 unknown
21:24 73.4 °F 64.4 °F 29.6 in WSW 1.9 mph 3.7 mph 77% 0 in 0.00 W/m2 unknown
21:29 71.6 °F 64.4 °F 29.6 in WSW 1.2 mph 3.1 mph 79% 0 in 0.00 W/m2 unknown
21:34 71.6 °F 64.4 °F 29.6 in WSW 0.6 mph 1.2 mph 80% 0 in 0.00 W/m2 unknown
21:39 71.6 °F 64.4 °F 29.6 in WSW 0.6 mph 2.5 mph 81% 0 in 0.00 W/m2 unknown
21:44 71.6 °F 64.4 °F 29.6 in Calm   1.9 mph 82% 0 in 0.00 W/m2 unknown
21:49 69.8 °F 64.4 °F 29.6 in Calm   1.2 mph 82% 0 in 0.00 W/m2 unknown
21:54 69.8 °F 64.4 °F 29.6 in Calm   1.2 mph 82% 0 in 0.00 W/m2 unknown
21:59 69.8 °F 64.4 °F 29.6 in Calm   1.2 mph 83% 0 in 0.00 W/m2 unknown
22:04 69.8 °F 64.4 °F 29.6 in Calm   1.2 mph 83% 0 in 0.00 W/m2 unknown
22:09 69.8 °F 64.4 °F 29.6 in WSW 1.2 mph 3.7 mph 84% 0 in 0.00 W/m2 unknown
22:14 69.8 °F 64.4 °F 29.6 in WSW 1.9 mph 3.7 mph 84% 0 in 0.00 W/m2 unknown
22:19 69.8 °F 64.4 °F 29.6 in WSW 2.5 mph 3.7 mph 83% 0 in 0.00 W/m2 unknown
22:24 69.8 °F 64.4 °F 29.6 in WSW 3.1 mph 3.7 mph 82% 0 in 0.00 W/m2 unknown
22:29 69.8 °F 64.4 °F 29.6 in SW 3.1 mph 3.7 mph 82% 0 in 0.00 W/m2 unknown
22:34 69.8 °F 64.4 °F 29.6 in SW 3.1 mph 3.7 mph 81% 0 in 0.00 W/m2 unknown
22:39 71.6 °F 64.4 °F 29.6 in SW 3.7 mph 5 mph 80% 0 in 0.00 W/m2 unknown
22:44 71.6 °F 64.4 °F 29.6 in SW 3.7 mph 6.2 mph 78% 0 in 0.00 W/m2 unknown
22:49 71.6 °F 64.4 °F 29.6 in SW 3.7 mph 6.2 mph 78% 0 in 0.00 W/m2 unknown
22:59 71.6 °F 64.4 °F 29.6 in SW 3.7 mph 6.2 mph 77% 0 in 0.00 W/m2 unknown
23:04 71.6 °F 64.4 °F 29.6 in SSW 3.1 mph 6.2 mph 77% 0 in 0.00 W/m2 unknown
23:09 71.6 °F 64.4 °F 29.6 in SSW 4.3 mph 6.2 mph 77% 0 in 0.00 W/m2 unknown
23:14 71.6 °F 64.4 °F 29.6 in SSW 3.1 mph 6.2 mph 77% 0 in 0.00 W/m2 unknown
23:19 71.6 °F 64.4 °F 29.6 in SW 2.5 mph 5 mph 78% 0 in 0.00 W/m2 unknown
23:24 71.6 °F 64.4 °F 29.6 in SW 1.2 mph 3.1 mph 80% 0 in 0.00 W/m2 unknown
23:29 69.8 °F 64.4 °F 29.6 in SW 1.2 mph 2.5 mph 81% 0 in 0.00 W/m2 unknown
23:34 69.8 °F 64.4 °F 29.6 in SW 1.2 mph 2.5 mph 81% 0 in 0.00 W/m2 unknown
23:39 69.8 °F 64.4 °F 29.6 in NW 1.9 mph 2.5 mph 82% 0 in 0.00 W/m2 unknown
23:44 69.8 °F 64.4 °F 29.6 in NNW 1.2 mph 2.5 mph 82% 0 in 0.00 W/m2 unknown
23:49 69.8 °F 62.6 °F 29.6 in North 1.2 mph 2.5 mph 81% 0 in 0.00 W/m2 unknown
23:54 69.8 °F 64.4 °F 29.6 in North 1.2 mph 1.9 mph 83% 0 in 0.00 W/m2 unknown
23:59 69.8 °F 64.4 °F 29.6 in North 1.2 mph 1.2 mph 84% 0 in 0.00 W/m2 unknown
Stazione Meteorologica MeteoMincio Rivalta s/M (MN)
Con i complimenti di Weather Underground - 4 mb



METEO PILLOLE
Il luogo più nebbioso degli USA
Cape Disappointment - Washington
Per 2552 ore (106 giorni) all'anno in media è avvolto da nebbia fitta.
Share

Non seguire questo link o sarai bannato dal sito!